Time;durP1;ratioP1;P1;durP2;ratioP2;P2;SDS_P1;SDS_P2;PMS_P1;PMS_P2;Temp;Humidity;BMP_temperature;BMP_pressure;BME280_temperature;BME280_humidity;BME280_pressure;Samples;Min_cycle;Max_cycle;Signal;HPM_P1;HPM_P2
2023/07/24 00:01:31;;;;;;;29.20;27.07;;;;;;;16.74;100.00;100142.13;5053131;28;21086;-42
2023/07/24 00:03:59;;;;;;;28.20;26.50;;;;;;;16.73;100.00;100139.66;5052608;28;20466;-42
2023/07/24 00:06:26;;;;;;;28.07;26.27;;;;;;;16.71;100.00;100145.31;5045936;28;20427;-43
2023/07/24 00:08:56;;;;;;;28.60;26.80;;;;;;;16.69;100.00;100133.97;5042739;28;20435;-42
2023/07/24 00:11:23;;;;;;;28.63;26.63;;;;;;;16.68;100.00;100134.22;5052664;28;20436;-42
2023/07/24 00:13:51;;;;;;;28.90;27.20;;;;;;;16.68;100.00;100129.66;5044691;28;20474;-42
2023/07/24 00:16:19;;;;;;;31.60;28.87;;;;;;;16.66;100.00;100133.66;5045788;28;20438;-42
2023/07/24 00:18:46;;;;;;;28.40;26.70;;;;;;;16.65;100.00;100130.16;5053286;28;20435;-43
2023/07/24 00:21:14;;;;;;;29.20;27.10;;;;;;;16.64;100.00;100127.69;5041480;28;20869;-42
2023/07/24 00:23:42;;;;;;;28.27;26.47;;;;;;;16.64;100.00;100120.44;5052162;28;20479;-42
2023/07/24 00:26:11;;;;;;;28.63;26.63;;;;;;;16.63;100.00;100110.75;5052605;28;20419;-44
2023/07/24 00:28:38;;;;;;;27.63;25.90;;;;;;;16.64;100.00;100115.06;5052937;28;20432;-44
2023/07/24 00:31:06;;;;;;;28.43;26.43;;;;;;;16.65;100.00;100119.38;5052847;28;20431;-44
2023/07/24 00:33:34;;;;;;;28.77;26.80;;;;;;;16.68;100.00;100115.38;5052372;28;20447;-42
2023/07/24 00:36:01;;;;;;;27.30;25.70;;;;;;;16.68;100.00;100113.50;5051129;28;20514;-44
2023/07/24 00:38:29;;;;;;;27.13;25.47;;;;;;;16.71;100.00;100115.69;5052948;28;20435;-44
2023/07/24 00:40:57;;;;;;;27.87;25.90;;;;;;;16.78;100.00;100115.50;5042781;28;20458;-44
2023/07/24 00:43:26;;;;;;;25.80;24.20;;;;;;;16.78;100.00;100112.81;5042666;28;20895;-44
2023/07/24 00:45:56;;;;;;;26.60;25.10;;;;;;;16.79;100.00;100109.03;5040902;28;20463;-42
2023/07/24 00:48:24;;;;;;;28.50;26.70;;;;;;;16.80;100.00;100100.72;5052201;28;20431;-42
2023/07/24 00:50:52;;;;;;;26.13;24.63;;;;;;;16.78;100.00;100110.13;5052541;28;20466;-42
2023/07/24 00:53:20;;;;;;;26.70;25.20;;;;;;;16.78;100.00;100102.03;5043187;28;20501;-42
2023/07/24 00:55:49;;;;;;;28.07;25.97;;;;;;;16.77;100.00;100105.78;5045488;28;20543;-41
2023/07/24 00:58:17;;;;;;;27.73;25.83;;;;;;;16.79;100.00;100099.06;5052265;28;20785;-42
2023/07/24 01:00:46;;;;;;;26.90;25.20;;;;;;;16.77;100.00;100101.22;5052877;28;20427;-42
2023/07/24 01:03:14;;;;;;;27.10;24.83;;;;;;;16.79;100.00;100092.88;5052228;28;20490;-43
2023/07/24 01:05:42;;;;;;;27.50;25.90;;;;;;;16.77;100.00;100095.84;5046229;28;20895;-44
2023/07/24 01:08:10;;;;;;;26.60;25.00;;;;;;;16.80;100.00;100100.72;5045900;28;20490;-42
2023/07/24 01:10:37;;;;;;;25.57;23.87;;;;;;;16.84;100.00;100093.78;5052531;28;20438;-43
2023/07/24 01:13:10;;;;;;;26.53;24.83;;;;;;;16.84;100.00;100091.06;5051760;28;20541;-47
2023/07/24 01:15:43;;;;;;;25.33;23.93;;;;;;;16.86;100.00;100094.31;5043320;28;20509;-45
2023/07/24 01:18:16;;;;;;;25.73;24.13;;;;;;;16.84;100.00;100096.47;5052069;28;20492;-44
2023/07/24 01:20:49;;;;;;;26.27;24.70;;;;;;;16.88;100.00;100094.06;5041027;28;20461;-43
2023/07/24 01:23:32;;;;;;;24.47;23.07;;;;;;;16.88;100.00;100085.97;5043186;28;20522;-43
2023/07/24 01:26:02;;;;;;;26.27;24.57;;;;;;;16.89;100.00;100085.72;5039033;28;20519;-42
2023/07/24 01:28:30;;;;;;;25.47;23.50;;;;;;;16.92;100.00;100087.09;5046956;28;20434;-44
2023/07/24 01:30:58;;;;;;;24.63;23.23;;;;;;;16.93;100.00;100086.03;5045745;28;20476;-45
2023/07/24 01:33:26;;;;;;;25.77;24.27;;;;;;;16.94;100.00;100077.69;5046374;28;20452;-42
2023/07/24 01:35:55;;;;;;;24.67;23.17;;;;;;;16.95;100.00;100081.22;5046120;28;20490;-44
2023/07/24 01:38:25;;;;;;;25.03;23.37;;;;;;;16.96;100.00;100082.84;5051442;28;20514;-43
2023/07/24 01:40:53;;;;;;;25.23;23.23;;;;;;;16.92;100.00;100074.44;5051515;28;20521;-43
2023/07/24 01:43:22;;;;;;;24.00;22.50;;;;;;;16.93;100.00;100073.41;5051070;28;20471;-42
2023/07/24 01:45:50;;;;;;;24.63;22.80;;;;;;;16.96;100.00;100083.66;5050574;28;21007;-43
2023/07/24 01:48:18;;;;;;;24.90;23.13;;;;;;;16.96;100.00;100070.19;5051198;28;20435;-43
2023/07/24 01:50:46;;;;;;;24.03;22.53;;;;;;;16.97;100.00;100063.72;5051176;28;20439;-45
2023/07/24 01:53:13;;;;;;;24.20;22.67;;;;;;;16.98;100.00;100056.47;5051525;28;20458;-44
2023/07/24 01:55:41;;;;;;;24.30;22.60;;;;;;;17.01;100.00;100051.38;5050817;28;20465;-42
2023/07/24 01:58:09;;;;;;;23.80;22.20;;;;;;;17.02;100.00;100052.19;5051298;28;20486;-43
2023/07/24 02:00:38;;;;;;;24.33;22.87;;;;;;;17.01;100.00;100059.47;5051627;28;20446;-46
2023/07/24 02:03:06;;;;;;;24.20;22.60;;;;;;;17.03;100.00;100056.50;5044645;28;20484;-44
2023/07/24 02:05:34;;;;;;;26.87;24.00;;;;;;;17.01;100.00;100056.78;5045108;28;20497;-42
2023/07/24 02:08:02;;;;;;;25.57;23.70;;;;;;;16.95;100.00;100046.19;5046398;28;20865;-42
2023/07/24 02:10:29;;;;;;;27.07;24.47;;;;;;;16.94;100.00;100053.47;5051241;28;20522;-47
2023/07/24 02:12:57;;;;;;;25.90;24.17;;;;;;;16.93;100.00;100046.47;5051345;28;20501;-41
2023/07/24 02:15:25;;;;;;;24.23;22.80;;;;;;;16.92;100.00;100047.53;5050940;28;20538;-43
2023/07/24 02:17:54;;;;;;;25.00;23.40;;;;;;;16.92;100.00;100042.13;5050674;28;20459;-44
2023/07/24 02:20:22;;;;;;;25.23;23.00;;;;;;;16.94;100.00;100042.69;5037487;28;20463;-46
2023/07/24 02:22:50;;;;;;;24.07;22.67;;;;;;;16.97;100.00;100042.16;5050365;28;20450;-43
2023/07/24 02:25:18;;;;;;;25.73;23.87;;;;;;;17.00;100.00;100038.16;5050766;28;20574;-45
2023/07/24 02:27:45;;;;;;;25.20;23.60;;;;;;;17.02;100.00;100044.91;5050928;28;20426;-43
2023/07/24 02:30:13;;;;;;;25.80;23.90;;;;;;;17.05;100.00;100041.69;5051228;28;20439;-44
2023/07/24 02:32:41;;;;;;;24.83;23.10;;;;;;;17.09;100.00;100050.91;5051211;28;20442;-43
2023/07/24 02:35:10;;;;;;;26.40;24.10;;;;;;;17.09;100.00;100045.53;5051281;28;20985;-47
2023/07/24 02:37:40;;;;;;;24.43;22.73;;;;;;;17.08;100.00;100035.81;5055131;28;21022;-43
2023/07/24 02:40:09;;;;;;;25.60;23.57;;;;;;;17.13;100.00;100043.94;5054899;28;20462;-44
2023/07/24 02:42:37;;;;;;;26.93;24.83;;;;;;;17.17;100.00;100043.44;5053819;28;20496;-42
2023/07/24 02:45:10;;;;;;;25.90;23.70;;;;;;;17.19;100.00;100038.59;5051243;28;20482;-42
2023/07/24 02:47:38;;;;;;;26.37;24.23;;;;;;;17.19;100.00;100039.41;5037738;28;20432;-44
2023/07/24 02:50:06;;;;;;;26.20;24.00;;;;;;;17.20;100.00;100041.06;5034966;28;20490;-43
2023/07/24 02:52:35;;;;;;;25.80;23.93;;;;;;;17.23;100.00;100037.03;5035483;28;20441;-43
2023/07/24 02:55:03;;;;;;;27.53;25.23;;;;;;;17.24;100.00;100036.75;5046207;28;20576;-43
2023/07/24 02:57:31;;;;;;;27.20;24.70;;;;;;;17.22;100.00;100046.97;5049639;28;20518;-45
2023/07/24 02:59:59;;;;;;;27.83;25.60;;;;;;;17.13;100.00;100049.34;5054336;28;20509;-45
2023/07/24 03:02:27;;;;;;;28.13;25.00;;;;;;;17.05;100.00;100044.41;5052231;28;20473;-42
2023/07/24 03:04:55;;;;;;;25.70;23.63;;;;;;;17.03;100.00;100037.63;5048692;28;20517;-43
2023/07/24 03:07:23;;;;;;;27.00;24.80;;;;;;;17.02;100.00;100038.72;5053989;28;20435;-42
2023/07/24 03:09:52;;;;;;;21.20;19.37;;;;;;;16.97;100.00;100047.56;5054309;28;20463;-43
2023/07/24 03:12:20;;;;;;;21.23;19.10;;;;;;;16.99;100.00;100052.72;5054098;28;20951;-43
2023/07/24 03:14:48;;;;;;;21.50;19.60;;;;;;;16.99;100.00;100048.09;5053576;28;20844;-43
2023/07/24 03:17:16;;;;;;;21.90;19.80;;;;;;;17.03;100.00;100045.72;5053838;28;20427;-45
2023/07/24 03:19:43;;;;;;;21.93;19.80;;;;;;;16.99;100.00;100050.81;5052614;28;20929;-45
2023/07/24 03:22:11;;;;;;;22.40;20.40;;;;;;;17.01;100.00;100056.78;5053432;28;20526;-42
2023/07/24 03:24:39;;;;;;;23.97;21.63;;;;;;;17.03;100.00;100054.63;5053203;28;20477;-46
2023/07/24 03:27:08;;;;;;;22.37;20.30;;;;;;;17.03;100.00;100054.63;5050347;28;20869;-43
2023/07/24 03:29:37;;;;;;;23.40;21.27;;;;;;;17.05;100.00;100057.06;5043395;28;20432;-46
2023/07/24 03:32:05;;;;;;;22.70;20.73;;;;;;;17.05;100.00;100055.16;5045777;28;20510;-43
2023/07/24 03:34:32;;;;;;;23.70;21.93;;;;;;;17.06;100.00;100048.72;5035484;28;20555;-45
2023/07/24 03:37:00;;;;;;;24.50;22.00;;;;;;;17.01;100.00;100055.94;5044173;28;21053;-42
2023/07/24 03:39:28;;;;;;;23.67;21.43;;;;;;;17.04;100.00;100064.34;5046420;28;20470;-43
2023/07/24 03:41:55;;;;;;;25.07;22.37;;;;;;;17.08;100.00;100059.25;5052086;28;20477;-44
2023/07/24 03:44:24;;;;;;;23.23;21.30;;;;;;;17.11;100.00;100054.16;5052679;28;21011;-43
2023/07/24 03:46:52;;;;;;;23.93;21.63;;;;;;;17.10;100.00;100054.41;5052045;28;20971;-44
2023/07/24 03:49:20;;;;;;;23.43;21.53;;;;;;;17.14;100.00;100056.34;5053434;28;20450;-44
2023/07/24 03:51:47;;;;;;;23.30;21.17;;;;;;;17.15;100.00;100057.16;5053069;28;20467;-44
2023/07/24 03:54:15;;;;;;;23.30;21.30;;;;;;;17.17;100.00;100055.81;5052687;28;20550;-45
2023/07/24 03:56:43;;;;;;;23.30;21.20;;;;;;;17.17;100.00;100059.59;5052988;28;20515;-45
2023/07/24 03:59:11;;;;;;;23.27;21.00;;;;;;;17.22;100.00;100059.63;5041969;28;20543;-44
2023/07/24 04:01:40;;;;;;;22.80;20.50;;;;;;;17.25;100.00;100056.44;5043234;28;20437;-44
2023/07/24 04:04:08;;;;;;;23.30;21.40;;;;;;;17.24;100.00;100066.41;5049297;28;20469;-43
2023/07/24 04:06:35;;;;;;;22.27;20.57;;;;;;;17.29;100.00;100062.94;5051129;28;20475;-45
2023/07/24 04:09:03;;;;;;;22.53;20.30;;;;;;;17.31;100.00;100080.47;5053020;28;20489;-43
2023/07/24 04:11:31;;;;;;;24.40;20.33;;;;;;;17.31;100.00;100085.06;5052608;28;20514;-43
2023/07/24 04:13:59;;;;;;;23.27;21.17;;;;;;;17.36;100.00;100079.69;5052338;28;20482;-44
2023/07/24 04:16:27;;;;;;;28.90;20.50;;;;;;;17.34;100.00;100079.97;5052540;28;20995;-43
2023/07/24 04:18:57;;;;;;;21.10;19.43;;;;;;;17.36;100.00;100077.00;5052336;28;20437;-43
2023/07/24 04:21:25;;;;;;;20.43;18.60;;;;;;;17.36;100.00;100079.69;5052704;28;20423;-45
2023/07/24 04:23:53;;;;;;;20.07;18.33;;;;;;;17.32;100.00;100078.59;5052470;28;21295;-45
2023/07/24 04:26:20;;;;;;;18.63;17.30;;;;;;;17.34;100.00;100079.16;5052138;28;20864;-47
2023/07/24 04:28:48;;;;;;;19.47;17.77;;;;;;;17.37;100.00;100084.84;5052317;28;20462;-45
2023/07/24 04:31:16;;;;;;;19.30;17.60;;;;;;;17.35;100.00;100080.78;5051258;28;20439;-42
2023/07/24 04:33:44;;;;;;;18.47;16.60;;;;;;;17.39;100.00;100082.69;5039164;28;20465;-43
2023/07/24 04:36:13;;;;;;;17.73;16.40;;;;;;;17.43;100.00;100081.13;5052437;28;20514;-43
2023/07/24 04:38:46;;;;;;;17.10;15.93;;;;;;;17.41;100.00;100085.16;5052200;28;20427;-46
2023/07/24 04:41:13;;;;;;;15.97;14.73;;;;;;;17.38;100.00;100082.97;5052502;28;20526;-45
2023/07/24 04:43:41;;;;;;;16.10;14.83;;;;;;;17.41;100.00;100085.94;5052167;28;20481;-42
2023/07/24 04:46:09;;;;;;;16.13;14.50;;;;;;;17.43;100.00;100078.44;5052252;28;20569;-45
2023/07/24 04:48:36;;;;;;;15.60;14.30;;;;;;;17.38;100.00;100083.75;5042979;28;20440;-46
2023/07/24 04:51:04;;;;;;;16.00;15.13;;;;;;;17.41;100.00;100082.44;5038216;28;20468;-46
2023/07/24 04:53:33;;;;;;;15.27;14.30;;;;;;;17.41;100.00;100071.66;5040675;28;20461;-43
2023/07/24 04:56:01;;;;;;;14.63;13.83;;;;;;;17.40;100.00;100075.44;5041583;28;20497;-43
2023/07/24 04:58:28;;;;;;;15.73;14.23;;;;;;;17.36;100.00;100067.03;5051471;28;20507;-44
2023/07/24 05:00:56;;;;;;;15.43;14.40;;;;;;;17.38;100.00;100082.97;5045222;28;20515;-42
2023/07/24 05:03:24;;;;;;;16.83;15.33;;;;;;;17.41;100.00;100077.06;5040589;28;20534;-43
2023/07/24 05:05:55;;;;;;;15.50;14.27;;;;;;;17.46;100.00;100077.09;5040100;28;20566;-43
2023/07/24 05:08:23;;;;;;;22.87;15.97;;;;;;;17.50;100.00;100078.22;5047549;28;20493;-42
2023/07/24 05:10:56;;;;;;;15.97;14.70;;;;;;;17.55;100.00;100075.59;5051493;28;20991;-44
2023/07/24 05:13:24;;;;;;;15.80;14.77;;;;;;;17.53;100.00;100078.50;5048909;28;20455;-42
2023/07/24 05:15:51;;;;;;;16.13;15.13;;;;;;;17.56;100.00;100088.78;5051053;28;20483;-47
2023/07/24 05:18:19;;;;;;;15.00;13.77;;;;;;;17.64;100.00;100077.53;5051965;28;20496;-43
2023/07/24 05:20:48;;;;;;;15.57;14.17;;;;;;;17.70;100.00;100073.00;5039645;28;20479;-43
2023/07/24 05:23:16;;;;;;;15.00;14.10;;;;;;;17.74;100.00;100066.00;5050497;28;20990;-42
2023/07/24 05:25:43;;;;;;;15.43;14.53;;;;;;;17.80;100.00;100061.47;5050906;28;20482;-46
2023/07/24 05:28:12;;;;;;;15.67;14.17;;;;;;;17.89;100.00;100063.41;5044394;28;20443;-43
2023/07/24 05:30:40;;;;;;;14.97;13.60;;;;;;;17.94;100.00;100060.75;5034673;28;20913;-44
2023/07/24 05:33:08;;;;;;;15.50;14.37;;;;;;;18.02;100.00;100054.84;5034394;28;20487;-43
2023/07/24 05:35:35;;;;;;;15.17;14.17;;;;;;;18.04;100.00;100055.41;5042230;28;20451;-44
2023/07/24 05:38:03;;;;;;;15.03;13.93;;;;;;;18.13;100.00;100055.69;5043468;28;20522;-43
2023/07/24 05:40:31;;;;;;;14.93;14.03;;;;;;;18.09;100.00;100062.72;5050663;28;20461;-43
2023/07/24 05:42:58;;;;;;;14.63;13.73;;;;;;;18.09;100.00;100055.44;5051699;28;20810;-43
2023/07/24 05:45:28;;;;;;;15.77;14.57;;;;;;;18.05;100.00;100053.50;5050954;28;20455;-44
2023/07/24 05:47:55;;;;;;;15.10;14.30;;;;;;;18.06;100.00;100053.25;5051520;28;20441;-48
2023/07/24 05:50:23;;;;;;;15.87;14.47;;;;;;;18.11;100.00;100061.38;5050683;28;20534;-43
2023/07/24 05:52:51;;;;;;;14.10;13.27;;;;;;;18.14;100.00;100060.03;5051142;28;20546;-43
2023/07/24 05:55:18;;;;;;;13.50;12.97;;;;;;;18.29;100.00;100059.28;5050998;28;20534;-44
2023/07/24 05:57:46;;;;;;;14.63;13.63;;;;;;;18.39;100.00;100062.03;5051294;28;20493;-43
2023/07/24 06:00:14;;;;;;;14.70;13.70;;;;;;;18.45;100.00;100052.88;5051182;28;20442;-43
2023/07/24 06:02:43;;;;;;;15.47;14.17;;;;;;;18.46;100.00;100052.59;5050620;28;20488;-42
2023/07/24 06:05:11;;;;;;;14.13;13.27;;;;;;;18.52;100.00;100042.66;5045498;28;20534;-43
2023/07/24 06:07:40;;;;;;;14.27;13.40;;;;;;;18.60;100.00;100034.06;5049785;28;20481;-42
2023/07/24 06:10:08;;;;;;;14.67;13.43;;;;;;;18.61;100.00;100032.97;5051376;28;20561;-43
2023/07/24 06:12:36;;;;;;;15.67;14.60;;;;;;;18.66;100.00;100028.44;5054743;28;20485;-43
2023/07/24 06:15:04;;;;;;;14.40;13.70;;;;;;;18.73;100.00;100015.47;5051399;28;20545;-44
2023/07/24 06:17:32;;;;;;;15.50;14.50;;;;;;;18.83;100.00;100020.06;5053696;28;20506;-43
2023/07/24 06:20:01;;;;;;;15.47;14.50;;;;;;;18.98;100.00;100013.88;5054865;28;20438;-43
2023/07/24 06:22:29;;;;;;;14.80;14.10;;;;;;;19.13;100.00;100016.59;5055198;28;20797;-43
2023/07/24 06:24:57;;;;;;;15.13;14.30;;;;;;;19.15;100.00;100022.53;5054627;28;20446;-43
2023/07/24 06:27:25;;;;;;;15.63;14.40;;;;;;;19.12;100.00;100029.28;5054873;28;21064;-43
2023/07/24 06:29:52;;;;;;;14.33;13.40;;;;;;;19.12;100.00;100031.97;5055154;28;20454;-44
2023/07/24 06:32:28;;;;;;;15.33;14.17;;;;;;;19.11;100.00;100043.91;5054915;28;20816;-43
2023/07/24 06:34:56;;;;;;;15.00;14.20;;;;;;;19.11;100.00;100035.78;5054554;28;20519;-43
2023/07/24 06:37:25;;;;;;;14.67;13.90;;;;;;;19.12;100.00;100031.16;5055170;28;20887;-43
2023/07/24 06:39:52;;;;;;;15.80;14.77;;;;;;;19.11;100.00;100034.97;5053542;28;20509;-43
2023/07/24 06:42:20;;;;;;;14.90;13.80;;;;;;;19.10;100.00;100034.16;5054634;28;20434;-42
2023/07/24 06:44:48;;;;;;;14.83;14.00;;;;;;;19.07;100.00;100033.88;5054191;28;20494;-43
2023/07/24 06:47:16;;;;;;;14.40;13.70;;;;;;;19.04;100.00;100035.22;5054650;28;20474;-43
2023/07/24 06:49:43;;;;;;;14.80;13.93;;;;;;;19.04;100.00;100031.72;5054887;28;20443;-44
2023/07/24 06:52:11;;;;;;;14.40;13.50;;;;;;;19.02;100.00;100015.78;5054261;28;20473;-44
2023/07/24 06:54:40;;;;;;;15.20;14.00;;;;;;;19.01;100.00;100021.44;5053955;28;20541;-45
2023/07/24 06:57:08;;;;;;;14.53;13.80;;;;;;;19.01;100.00;100034.94;5054708;28;20431;-45
2023/07/24 06:59:35;;;;;;;16.70;15.17;;;;;;;18.92;100.00;100039.25;5054565;28;20470;-42
2023/07/24 07:02:04;;;;;;;14.60;13.87;;;;;;;18.84;100.00;100037.09;5050352;28;20427;-42
2023/07/24 07:04:31;;;;;;;15.60;14.13;;;;;;;18.83;100.00;100036.28;5053389;28;20486;-43
2023/07/24 07:06:59;;;;;;;15.63;14.80;;;;;;;18.83;100.00;100049.78;5053722;28;20502;-47
2023/07/24 07:09:27;;;;;;;14.93;13.97;;;;;;;18.82;100.00;100045.44;5053714;28;20506;-44
2023/07/24 07:11:56;;;;;;;14.73;13.70;;;;;;;18.84;100.00;100045.19;5054167;28;20970;-44
2023/07/24 07:14:24;;;;;;;13.87;13.07;;;;;;;18.93;100.00;100030.91;5053860;28;20527;-43
2023/07/24 07:16:52;;;;;;;14.10;13.13;;;;;;;19.03;100.00;100039.00;5053368;28;20462;-44
2023/07/24 07:19:20;;;;;;;15.10;13.67;;;;;;;19.10;100.00;100033.34;5054060;28;20449;-42
2023/07/24 07:21:47;;;;;;;15.50;14.73;;;;;;;19.20;100.00;100025.25;5053631;28;20431;-43
2023/07/24 07:24:15;;;;;;;15.03;14.17;;;;;;;19.27;100.00;100029.28;5052069;28;20887;-45
2023/07/24 07:26:44;;;;;;;13.83;13.33;;;;;;;19.26;100.00;100027.66;5054001;28;20528;-43
2023/07/24 07:29:13;;;;;;;14.90;13.27;;;;;;;19.44;100.00;100020.94;5054067;28;20813;-48
2023/07/24 07:31:41;;;;;;;14.70;13.83;;;;;;;19.53;100.00;100035.53;5053476;28;20529;-43
2023/07/24 07:34:09;;;;;;;15.40;14.00;;;;;;;19.48;100.00;100038.22;5052897;28;20462;-43
2023/07/24 07:36:36;;;;;;;14.33;13.73;;;;;;;19.44;100.00;100037.16;5054022;28;20521;-45
2023/07/24 07:39:04;;;;;;;15.40;14.30;;;;;;;19.46;100.00;100043.09;5053378;28;20521;-44
2023/07/24 07:41:32;;;;;;;15.03;14.23;;;;;;;19.44;100.00;100039.88;5053125;28;20525;-45
2023/07/24 07:44:00;;;;;;;15.90;14.80;;;;;;;19.41;100.00;100039.59;5053434;28;20571;-44
2023/07/24 07:46:29;;;;;;;17.80;15.17;;;;;;;19.31;100.00;100041.19;5053097;28;20925;-43
2023/07/24 07:48:57;;;;;;;14.10;13.43;;;;;;;19.38;100.00;100050.94;5053653;28;20434;-43
2023/07/24 07:51:26;;;;;;;14.50;13.63;;;;;;;19.35;100.00;100046.88;5052702;28;20434;-43
2023/07/24 07:53:53;;;;;;;14.00;13.20;;;;;;;19.41;100.00;100036.91;5052760;28;20561;-44
2023/07/24 07:56:21;;;;;;;14.03;13.40;;;;;;;19.42;100.00;100039.31;5053556;28;20431;-42
2023/07/24 07:58:49;;;;;;;13.70;12.97;;;;;;;19.37;100.00;100044.69;5053112;28;20427;-46
2023/07/24 08:01:16;;;;;;;14.73;13.63;;;;;;;19.39;100.00;100047.97;5051965;28;20435;-45
2023/07/24 08:03:46;;;;;;;13.67;12.77;;;;;;;19.36;100.00;100032.25;5049625;28;20836;-41
2023/07/24 08:06:14;;;;;;;13.33;12.63;;;;;;;19.36;100.00;100032.25;5042075;28;20509;-41
2023/07/24 08:08:41;;;;;;;14.20;13.20;;;;;;;19.27;100.00;100036.59;5051926;28;20555;-41
2023/07/24 08:11:09;;;;;;;14.60;13.77;;;;;;;19.31;100.00;100038.50;5053063;28;20455;-41
2023/07/24 08:13:37;;;;;;;13.60;13.00;;;;;;;19.33;100.00;100039.03;5051407;28;20478;-43
2023/07/24 08:16:06;;;;;;;13.13;12.60;;;;;;;19.26;100.00;100029.56;5052059;28;20435;-43
2023/07/24 08:18:34;;;;;;;13.30;12.77;;;;;;;19.34;100.00;100037.94;5052865;28;20457;-43
2023/07/24 08:21:03;;;;;;;12.23;11.73;;;;;;;19.42;100.00;100033.09;5052477;28;20439;-44
2023/07/24 08:23:30;;;;;;;13.80;13.30;;;;;;;19.47;100.00;100035.81;5052161;28;20447;-43
2023/07/24 08:25:58;;;;;;;12.83;12.00;;;;;;;19.59;100.00;100039.84;5051984;28;20438;-43
2023/07/24 08:28:26;;;;;;;12.73;12.13;;;;;;;19.81;100.00;100039.53;5052119;28;20478;-41
2023/07/24 08:31:01;;;;;;;12.17;11.67;;;;;;;20.12;100.00;100043.78;5052933;28;20454;-42
2023/07/24 08:33:34;;;;;;;12.67;11.97;;;;;;;20.31;100.00;100030.47;5050641;28;20454;-41
2023/07/24 08:36:04;;;;;;;13.50;12.77;;;;;;;20.55;100.00;100031.44;5051564;28;20827;-44
2023/07/24 08:38:32;;;;;;;13.43;12.70;;;;;;;20.84;100.00;100026.94;5051556;28;20438;-47
2023/07/24 08:41:05;;;;;;;12.83;12.03;;;;;;;21.02;100.00;100019.22;5052095;28;20534;-44
2023/07/24 08:43:34;;;;;;;13.97;12.73;;;;;;;21.46;100.00;100020.78;5050204;28;20454;-45
2023/07/24 08:46:03;;;;;;;13.77;13.07;;;;;;;21.77;100.00;100004.19;5052165;28;20533;-43
2023/07/24 08:48:35;;;;;;;13.50;12.80;;;;;;;22.00;100.00;100008.84;5052238;28;21095;-43
2023/07/24 08:51:06;;;;;;;13.87;13.20;;;;;;;22.52;100.00;100011.44;5052217;28;20925;-45
2023/07/24 08:53:35;;;;;;;13.03;12.17;;;;;;;22.75;100.00;100007.09;5048613;28;20817;-43
2023/07/24 08:56:03;;;;;;;12.80;12.10;;;;;;;22.95;100.00;100003.22;5051399;28;20438;-42
2023/07/24 08:58:31;;;;;;;14.90;13.90;;;;;;;23.24;100.00;99998.41;5051406;28;20427;-45
2023/07/24 09:01:00;;;;;;;13.00;12.30;;;;;;;23.18;100.00;99988.72;5051539;28;20851;-44
2023/07/24 09:03:29;;;;;;;13.00;12.10;;;;;;;23.09;100.00;99994.03;5051259;28;20542;-47
2023/07/24 09:05:57;;;;;;;13.13;12.43;;;;;;;22.93;100.00;99989.94;5040296;28;21128;-43
2023/07/24 09:08:34;;;;;;;12.70;11.90;;;;;;;22.77;100.00;99993.19;5050835;28;20471;-43
2023/07/24 09:11:03;;;;;;;13.00;12.40;;;;;;;22.65;100.00;99995.53;5051986;28;20474;-45
2023/07/24 09:13:31;;;;;;;13.63;12.50;;;;;;;22.70;100.00;99992.75;5050269;28;20505;-48
2023/07/24 09:16:00;;;;;;;12.30;11.50;;;;;;;22.83;100.00;99997.44;5049796;28;20435;-46
2023/07/24 09:18:27;;;;;;;12.33;11.70;;;;;;;23.00;100.00;99995.78;5051354;28;20427;-47
2023/07/24 09:20:55;;;;;;;12.47;11.70;;;;;;;22.93;100.00;99997.28;5049136;28;20522;-44
2023/07/24 09:23:28;;;;;;;13.03;12.43;;;;;;;22.80;100.00;99998.84;5047574;28;20474;-45
2023/07/24 09:25:58;;;;;;;12.73;12.03;;;;;;;22.80;100.00;99998.84;5047377;28;20736;-42
2023/07/24 09:28:27;;;;;;;12.70;12.20;;;;;;;23.07;100.00;100011.75;5047677;28;21091;-50
2023/07/24 09:30:56;;;;;;;13.83;13.23;;;;;;;23.43;100.00;99990.22;5049233;28;20798;-42
2023/07/24 09:33:35;;;;;;;14.43;13.53;;;;;;;23.59;100.00;99977.97;5048451;28;20538;-44
2023/07/24 09:36:05;;;;;;;13.87;13.07;;;;;;;23.76;100.00;99974.63;5048694;28;20451;-45
2023/07/24 09:38:33;;;;;;;14.83;14.13;;;;;;;24.30;100.00;99971.91;5049941;28;20993;-45
2023/07/24 09:41:03;;;;;;;13.20;12.60;;;;;;;24.45;100.00;99982.50;5050201;28;20430;-44
2023/07/24 09:43:31;;;;;;;11.60;11.10;;;;;;;24.31;100.00;99978.19;5047805;28;20462;-44
2023/07/24 09:46:04;;;;;;;11.27;10.70;;;;;;;24.31;100.00;99978.19;5049195;28;21003;-46
2023/07/24 09:48:33;;;;;;;11.87;11.33;;;;;;;24.43;100.00;99975.75;5048575;28;20485;-43
2023/07/24 09:51:03;;;;;;;12.50;11.90;;;;;;;24.32;100.00;99977.03;5049821;28;20419;-45
2023/07/24 09:53:34;;;;;;;12.20;11.60;;;;;;;24.39;100.00;99978.25;5048138;28;20451;-45
2023/07/24 09:56:05;;;;;;;11.73;11.03;;;;;;;24.31;100.00;99978.19;5048329;28;20422;-43
2023/07/24 09:58:35;;;;;;;12.83;12.17;;;;;;;24.49;100.00;99974.50;5049361;28;20427;-45
2023/07/24 10:01:05;;;;;;;12.37;11.77;;;;;;;24.94;100.00;99972.66;5049534;28;20965;-43
2023/07/24 10:03:35;;;;;;;10.40;9.90;;;;;;;24.95;100.00;99972.34;5049762;28;20454;-45
2023/07/24 10:06:04;;;;;;;11.00;10.60;;;;;;;25.39;100.00;99970.72;5049557;28;20454;-43
2023/07/24 10:08:32;;;;;;;9.27;8.77;;;;;;;25.48;100.00;99964.19;5050340;28;20920;-45
2023/07/24 10:11:00;;;;;;;9.87;9.47;;;;;;;25.29;100.00;99963.59;5050659;28;20506;-44
2023/07/24 10:13:30;;;;;;;10.00;9.40;;;;;;;25.44;100.00;99960.47;5050137;28;20477;-45
2023/07/24 10:15:58;;;;;;;8.77;8.20;;;;;;;25.57;100.00;99956.84;5049939;28;20492;-44
2023/07/24 10:18:29;;;;;;;10.17;9.53;;;;;;;26.21;100.00;99954.50;5050695;28;20517;-44
2023/07/24 10:21:06;;;;;;;10.17;9.57;;;;;;;26.50;100.00;99951.97;5049817;28;20587;-47
2023/07/24 10:23:35;;;;;;;9.33;8.93;;;;;;;26.83;100.00;99944.09;5049528;28;20453;-49
2023/07/24 10:26:04;;;;;;;8.97;8.40;;;;;;;26.43;100.00;99948.94;5051072;28;20480;-43
2023/07/24 10:28:38;;;;;;;8.97;8.47;;;;;;;26.60;100.00;99945.38;5040831;28;20907;-44
2023/07/24 10:31:20;;;;;;;9.23;8.57;;;;;;;26.50;100.00;99935.56;5031572;28;20408;-45
2023/07/24 10:33:49;;;;;;;8.40;8.00;;;;;;;26.43;100.00;99935.25;5030962;28;20462;-43
2023/07/24 10:36:19;;;;;;;8.87;8.37;;;;;;;27.09;100.00;99946.84;5031453;28;20861;-44
2023/07/24 10:38:48;;;;;;;9.13;8.63;;;;;;;27.35;100.00;99940.16;5031089;28;20515;-43
2023/07/24 10:41:15;;;;;;;8.33;7.83;;;;;;;27.30;97.23;99929.38;5031592;28;20431;-45
2023/07/24 10:43:46;;;;;;;8.00;7.40;;;;;;;27.37;100.00;99926.13;5030986;28;20463;-43
2023/07/24 10:46:17;;;;;;;7.70;7.20;;;;;;;26.44;95.31;99930.56;5031198;28;20529;-46
2023/07/24 10:48:46;;;;;;;7.93;7.23;;;;;;;26.22;100.00;99937.78;5031300;28;20529;-43
2023/07/24 10:51:15;;;;;;;8.23;7.37;;;;;;;25.83;100.00;99933.19;5031097;28;20438;-43
2023/07/24 10:53:44;;;;;;;7.20;6.70;;;;;;;25.30;100.00;99935.16;5030680;28;20454;-46
2023/07/24 10:56:13;;;;;;;7.00;6.60;;;;;;;24.41;100.00;99935.16;5032157;28;20436;-45
2023/07/24 10:58:40;;;;;;;7.13;6.83;;;;;;;24.24;100.00;99935.00;5035165;28;20537;-43
2023/07/24 11:01:11;;;;;;;7.90;7.50;;;;;;;24.04;100.00;99944.34;5035053;28;20423;-43
2023/07/24 11:03:40;;;;;;;7.73;7.23;;;;;;;23.87;100.00;99940.66;5035455;28;20483;-43
2023/07/24 11:06:13;;;;;;;7.13;6.83;;;;;;;23.79;100.00;99947.63;5054761;28;20577;-43
2023/07/24 11:08:41;;;;;;;8.30;7.27;;;;;;;23.55;100.00;99960.59;5054438;28;20548;-44
2023/07/24 11:11:09;;;;;;;7.30;6.90;;;;;;;23.54;100.00;99962.53;5054692;28;20435;-46